sensor_id;sensor_type;location;lat;lon;timestamp;pressure;altitude;pressure_sealevel;temperature;humidity
18988;BME280;5494;51.796;10.952;2022-12-10T00:01:49;98146.03;;;-0.90;100.00
18988;BME280;5494;51.796;10.952;2022-12-10T00:04:18;98141.19;;;-1.04;100.00
18988;BME280;5494;51.796;10.952;2022-12-10T00:06:46;98144.53;;;-1.02;100.00
18988;BME280;5494;51.796;10.952;2022-12-10T00:09:18;98141.06;;;-0.98;100.00
18988;BME280;5494;51.796;10.952;2022-12-10T00:11:47;98141.84;;;-0.94;100.00
18988;BME280;5494;51.796;10.952;2022-12-10T00:14:17;98146.78;;;-0.87;100.00
18988;BME280;5494;51.796;10.952;2022-12-10T00:16:46;98150.16;;;-0.85;100.00
18988;BME280;5494;51.796;10.952;2022-12-10T00:19:14;98149.31;;;-0.84;100.00
18988;BME280;5494;51.796;10.952;2022-12-10T00:21:43;98150.50;;;-1.03;100.00
18988;BME280;5494;51.796;10.952;2022-12-10T00:24:15;98147.28;;;-1.12;100.00
18988;BME280;5494;51.796;10.952;2022-12-10T00:26:43;98147.03;;;-0.99;100.00
18988;BME280;5494;51.796;10.952;2022-12-10T00:29:12;98146.78;;;-0.87;100.00
18988;BME280;5494;51.796;10.952;2022-12-10T00:31:45;98143.53;;;-0.93;100.00
18988;BME280;5494;51.796;10.952;2022-12-10T00:34:13;98140.84;;;-0.87;100.00
18988;BME280;5494;51.796;10.952;2022-12-10T00:36:45;98142.63;;;-0.91;100.00
18988;BME280;5494;51.796;10.952;2022-12-10T00:39:17;98141.94;;;-0.99;100.00
18988;BME280;5494;51.796;10.952;2022-12-10T00:41:46;98145.03;;;-0.83;100.00
18988;BME280;5494;51.796;10.952;2022-12-10T00:44:15;98140.72;;;-0.80;100.00
18988;BME280;5494;51.796;10.952;2022-12-10T00:46:45;98144.38;;;-0.93;100.00
18988;BME280;5494;51.796;10.952;2022-12-10T00:49:13;98137.72;;;-1.01;100.00
18988;BME280;5494;51.796;10.952;2022-12-10T00:51:41;98145.47;;;-1.06;100.00
18988;BME280;5494;51.796;10.952;2022-12-10T00:54:11;98140.34;;;-1.06;100.00
18988;BME280;5494;51.796;10.952;2022-12-10T00:56:39;98146.03;;;-0.90;100.00
18988;BME280;5494;51.796;10.952;2022-12-10T00:59:08;98151.22;;;-0.96;100.00
18988;BME280;5494;51.796;10.952;2022-12-10T01:01:39;98152.00;;;-0.93;100.00
18988;BME280;5494;51.796;10.952;2022-12-10T01:04:12;98158.41;;;-0.70;100.00
18988;BME280;5494;51.796;10.952;2022-12-10T01:06:43;98158.72;;;-0.89;100.00
18988;BME280;5494;51.796;10.952;2022-12-10T01:09:15;98151.28;;;-0.99;100.00
18988;BME280;5494;51.796;10.952;2022-12-10T01:11:47;98152.91;;;-0.97;100.00
18988;BME280;5494;51.796;10.952;2022-12-10T01:14:18;98156.06;;;-0.83;100.00
18988;BME280;5494;51.796;10.952;2022-12-10T01:16:48;98157.59;;;-0.74;100.00
18988;BME280;5494;51.796;10.952;2022-12-10T01:19:17;98152.97;;;-0.55;100.00
18988;BME280;5494;51.796;10.952;2022-12-10T01:21:49;98160.91;;;-0.69;100.00
18988;BME280;5494;51.796;10.952;2022-12-10T01:24:18;98160.28;;;-0.82;100.00
18988;BME280;5494;51.796;10.952;2022-12-10T01:26:46;98162.72;;;-0.74;100.00
18988;BME280;5494;51.796;10.952;2022-12-10T01:29:14;98169.53;;;-0.74;100.00
18988;BME280;5494;51.796;10.952;2022-12-10T01:31:43;98169.25;;;-0.61;100.00
18988;BME280;5494;51.796;10.952;2022-12-10T01:34:14;98165.81;;;-0.58;100.00
18988;BME280;5494;51.796;10.952;2022-12-10T01:36:49;98170.22;;;-0.66;100.00
18988;BME280;5494;51.796;10.952;2022-12-10T01:39:19;98166.06;;;-0.70;100.00
18988;BME280;5494;51.796;10.952;2022-12-10T01:41:51;98170.22;;;-0.66;100.00
18988;BME280;5494;51.796;10.952;2022-12-10T01:45:09;98167.84;;;-0.75;100.00
18988;BME280;5494;51.796;10.952;2022-12-10T01:47:38;98160.28;;;-0.82;100.00
18988;BME280;5494;51.796;10.952;2022-12-10T01:50:08;98161.22;;;-0.84;100.00
18988;BME280;5494;51.796;10.952;2022-12-10T01:52:38;98170.50;;;-0.82;100.00
18988;BME280;5494;51.796;10.952;2022-12-10T01:55:39;98171.22;;;-0.73;100.00
18988;BME280;5494;51.796;10.952;2022-12-10T01:58:09;98178.97;;;-0.80;100.00
18988;BME280;5494;51.796;10.952;2022-12-10T02:00:52;98176.31;;;-0.73;100.00
18988;BME280;5494;51.796;10.952;2022-12-10T02:03:32;98179.50;;;-0.62;100.00
18988;BME280;5494;51.796;10.952;2022-12-10T02:06:17;98182.84;;;-0.59;100.00
18988;BME280;5494;51.796;10.952;2022-12-10T02:09:04;98181.50;;;-0.78;100.00
18988;BME280;5494;51.796;10.952;2022-12-10T02:11:41;98179.66;;;-0.70;100.00
18988;BME280;5494;51.796;10.952;2022-12-10T02:14:20;98183.00;;;-0.68;100.00
18988;BME280;5494;51.796;10.952;2022-12-10T02:16:57;98183.88;;;-0.69;100.00
18988;BME280;5494;51.796;10.952;2022-12-10T02:19:49;98181.25;;;-0.64;100.00
18988;BME280;5494;51.796;10.952;2022-12-10T02:22:22;98178.84;;;-0.73;100.00
18988;BME280;5494;51.796;10.952;2022-12-10T02:24:57;98171.31;;;-0.80;100.00
18988;BME280;5494;51.796;10.952;2022-12-10T02:27:35;98172.19;;;-0.81;100.00
18988;BME280;5494;51.796;10.952;2022-12-10T02:30:10;98168.81;;;-0.83;100.00
18988;BME280;5494;51.796;10.952;2022-12-10T02:32:40;98173.81;;;-0.76;100.00
18988;BME280;5494;51.796;10.952;2022-12-10T02:35:16;98166.19;;;-0.78;100.00
18988;BME280;5494;51.796;10.952;2022-12-10T02:37:51;98168.88;;;-0.84;100.00
18988;BME280;5494;51.796;10.952;2022-12-10T02:40:25;98178.34;;;-0.91;100.00
18988;BME280;5494;51.796;10.952;2022-12-10T02:42:55;98164.78;;;-0.94;100.00
18988;BME280;5494;51.796;10.952;2022-12-10T02:45:28;98165.75;;;-1.00;100.00
18988;BME280;5494;51.796;10.952;2022-12-10T02:48:02;98167.69;;;-1.12;100.00
18988;BME280;5494;51.796;10.952;2022-12-10T02:50:37;98169.31;;;-1.10;100.00
18988;BME280;5494;51.796;10.952;2022-12-10T02:53:06;98161.50;;;-1.01;100.00
18988;BME280;5494;51.796;10.952;2022-12-10T02:55:54;98161.28;;;-0.89;100.00
18988;BME280;5494;51.796;10.952;2022-12-10T02:58:34;98164.94;;;-1.02;100.00
18988;BME280;5494;51.796;10.952;2022-12-10T03:01:17;98170.22;;;-1.12;100.00
18988;BME280;5494;51.796;10.952;2022-12-10T03:03:59;98162.56;;;-1.12;100.00
18988;BME280;5494;51.796;10.952;2022-12-10T03:06:36;98165.50;;;-0.88;100.00
18988;BME280;5494;51.796;10.952;2022-12-10T03:09:11;98168.28;;;-0.98;100.00
18988;BME280;5494;51.796;10.952;2022-12-10T03:11:42;98159.94;;;-1.08;100.00
18988;BME280;5494;51.796;10.952;2022-12-10T03:14:16;98165.88;;;-1.07;100.00
18988;BME280;5494;51.796;10.952;2022-12-10T03:16:54;98167.81;;;-1.22;100.00
18988;BME280;5494;51.796;10.952;2022-12-10T03:19:37;98159.47;;;-1.30;100.00
18988;BME280;5494;51.796;10.952;2022-12-10T03:22:10;98153.47;;;-1.26;100.00
18988;BME280;5494;51.796;10.952;2022-12-10T03:24:42;98159.03;;;-1.04;100.00
18988;BME280;5494;51.796;10.952;2022-12-10T03:27:13;98163.22;;;-1.01;100.00
18988;BME280;5494;51.796;10.952;2022-12-10T03:29:48;98166.81;;;-1.11;100.00
18988;BME280;5494;51.796;10.952;2022-12-10T03:32:25;98166.94;;;-1.19;100.00
18988;BME280;5494;51.796;10.952;2022-12-10T03:34:57;98171.09;;;-1.13;100.00
18988;BME280;5494;51.796;10.952;2022-12-10T03:37:28;98166.56;;;-0.98;100.00
18988;BME280;5494;51.796;10.952;2022-12-10T03:39:58;98167.47;;;-1.02;100.00
18988;BME280;5494;51.796;10.952;2022-12-10T03:42:26;98166.97;;;-1.21;100.00
18988;BME280;5494;51.796;10.952;2022-12-10T03:44:54;98175.50;;;-1.23;100.00
18988;BME280;5494;51.796;10.952;2022-12-10T03:47:24;98171.25;;;-1.24;100.00
18988;BME280;5494;51.796;10.952;2022-12-10T03:49:52;98166.09;;;-1.18;100.00
18988;BME280;5494;51.796;10.952;2022-12-10T03:52:20;98165.16;;;-1.14;100.00
18988;BME280;5494;51.796;10.952;2022-12-10T03:54:49;98170.44;;;-1.25;100.00
18988;BME280;5494;51.796;10.952;2022-12-10T03:57:17;98176.41;;;-1.27;100.00
18988;BME280;5494;51.796;10.952;2022-12-10T03:59:45;98173.00;;;-1.26;100.00
18988;BME280;5494;51.796;10.952;2022-12-10T04:02:13;98175.22;;;-1.08;100.00
18988;BME280;5494;51.796;10.952;2022-12-10T04:04:43;98182.78;;;-1.02;100.00
18988;BME280;5494;51.796;10.952;2022-12-10T04:07:11;98184.44;;;-0.99;100.00
18988;BME280;5494;51.796;10.952;2022-12-10T04:09:39;98182.84;;;-1.05;100.00
18988;BME280;5494;51.796;10.952;2022-12-10T04:12:07;98174.34;;;-1.04;100.00
18988;BME280;5494;51.796;10.952;2022-12-10T04:14:36;98183.84;;;-1.13;100.00
18988;BME280;5494;51.796;10.952;2022-12-10T04:17:21;98181.91;;;-1.01;100.00
18988;BME280;5494;51.796;10.952;2022-12-10T04:19:51;98183.00;;;-1.14;100.00
18988;BME280;5494;51.796;10.952;2022-12-10T04:22:19;98187.38;;;-1.24;100.00
18988;BME280;5494;51.796;10.952;2022-12-10T04:25:05;98180.59;;;-1.23;100.00
18988;BME280;5494;51.796;10.952;2022-12-10T04:27:47;98175.56;;;-1.28;100.00
18988;BME280;5494;51.796;10.952;2022-12-10T04:30:15;98180.78;;;-1.35;100.00
18988;BME280;5494;51.796;10.952;2022-12-10T04:32:43;98184.19;;;-1.35;100.00
18988;BME280;5494;51.796;10.952;2022-12-10T04:35:13;98184.19;;;-1.35;100.00
18988;BME280;5494;51.796;10.952;2022-12-10T04:37:41;98184.28;;;-1.41;100.00
18988;BME280;5494;51.796;10.952;2022-12-10T04:40:10;98186.13;;;-1.49;100.00
18988;BME280;5494;51.796;10.952;2022-12-10T04:42:39;98185.97;;;-1.40;100.00
18988;BME280;5494;51.796;10.952;2022-12-10T04:45:08;98190.13;;;-1.34;100.00
18988;BME280;5494;51.796;10.952;2022-12-10T04:47:36;98180.69;;;-1.29;100.00
18988;BME280;5494;51.796;10.952;2022-12-10T04:50:05;98183.09;;;-1.18;100.00
18988;BME280;5494;51.796;10.952;2022-12-10T04:52:35;98183.97;;;-1.21;100.00
18988;BME280;5494;51.796;10.952;2022-12-10T04:55:04;98189.03;;;-1.18;100.00
18988;BME280;5494;51.796;10.952;2022-12-10T04:57:32;98184.97;;;-1.31;100.00
18988;BME280;5494;51.796;10.952;2022-12-10T05:00:00;98190.22;;;-1.40;100.00
18988;BME280;5494;51.796;10.952;2022-12-10T05:02:29;98186.72;;;-1.33;100.00
18988;BME280;5494;51.796;10.952;2022-12-10T05:04:57;98185.81;;;-1.31;100.00
18988;BME280;5494;51.796;10.952;2022-12-10T05:07:25;98191.00;;;-1.37;100.00
18988;BME280;5494;51.796;10.952;2022-12-10T05:09:54;98195.31;;;-1.39;100.00
18988;BME280;5494;51.796;10.952;2022-12-10T05:12:22;98185.13;;;-1.39;100.00
18988;BME280;5494;51.796;10.952;2022-12-10T05:14:50;98185.03;;;-1.34;100.00
18988;BME280;5494;51.796;10.952;2022-12-10T05:17:18;98179.94;;;-1.34;100.00
18988;BME280;5494;51.796;10.952;2022-12-10T05:19:46;98181.63;;;-1.33;100.00
18988;BME280;5494;51.796;10.952;2022-12-10T05:22:14;98179.78;;;-1.25;100.00
18988;BME280;5494;51.796;10.952;2022-12-10T05:25:01;98179.06;;;-1.33;100.00
18988;BME280;5494;51.796;10.952;2022-12-10T05:27:32;98181.53;;;-1.27;100.00
18988;BME280;5494;51.796;10.952;2022-12-10T05:30:00;98183.94;;;-1.20;100.00
18988;BME280;5494;51.796;10.952;2022-12-10T05:32:28;98181.44;;;-1.24;100.00
18988;BME280;5494;51.796;10.952;2022-12-10T05:34:56;98190.06;;;-1.31;100.00
18988;BME280;5494;51.796;10.952;2022-12-10T05:37:24;98182.38;;;-1.27;100.00
18988;BME280;5494;51.796;10.952;2022-12-10T05:39:52;98192.69;;;-1.34;100.00
18988;BME280;5494;51.796;10.952;2022-12-10T05:42:21;98202.16;;;-1.42;100.00
18988;BME280;5494;51.796;10.952;2022-12-10T05:44:49;98202.16;;;-1.42;100.00
18988;BME280;5494;51.796;10.952;2022-12-10T05:47:17;98200.38;;;-1.37;100.00
18988;BME280;5494;51.796;10.952;2022-12-10T05:49:45;98211.25;;;-1.26;100.00
18988;BME280;5494;51.796;10.952;2022-12-10T05:52:18;98212.19;;;-1.32;100.00
18988;BME280;5494;51.796;10.952;2022-12-10T05:54:46;98218.03;;;-1.25;100.00
18988;BME280;5494;51.796;10.952;2022-12-10T05:57:14;98215.53;;;-1.30;100.00
18988;BME280;5494;51.796;10.952;2022-12-10T05:59:44;98213.78;;;-1.26;100.00
18988;BME280;5494;51.796;10.952;2022-12-10T06:02:12;98217.22;;;-1.27;100.00
18988;BME280;5494;51.796;10.952;2022-12-10T06:04:40;98214.66;;;-1.27;100.00
18988;BME280;5494;51.796;10.952;2022-12-10T06:07:08;98223.06;;;-1.24;100.00
18988;BME280;5494;51.796;10.952;2022-12-10T06:09:37;98222.31;;;-1.27;100.00
18988;BME280;5494;51.796;10.952;2022-12-10T06:12:05;98223.16;;;-1.28;100.00
18988;BME280;5494;51.796;10.952;2022-12-10T06:14:34;98224.72;;;-1.20;100.00
18988;BME280;5494;51.796;10.952;2022-12-10T06:17:03;98219.69;;;-1.24;100.00
18988;BME280;5494;51.796;10.952;2022-12-10T06:19:31;98224.88;;;-1.30;100.00
18988;BME280;5494;51.796;10.952;2022-12-10T06:21:59;98221.53;;;-1.32;100.00
18988;BME280;5494;51.796;10.952;2022-12-10T06:24:29;98226.44;;;-1.22;100.00
18988;BME280;5494;51.796;10.952;2022-12-10T06:26:57;98228.22;;;-1.25;100.00
18988;BME280;5494;51.796;10.952;2022-12-10T06:29:25;98234.09;;;-1.20;100.00
18988;BME280;5494;51.796;10.952;2022-12-10T06:31:53;98234.09;;;-1.20;100.00
18988;BME280;5494;51.796;10.952;2022-12-10T06:34:23;98231.53;;;-1.20;100.00
18988;BME280;5494;51.796;10.952;2022-12-10T06:36:53;98235.91;;;-1.28;100.00
18988;BME280;5494;51.796;10.952;2022-12-10T06:39:21;98234.16;;;-1.25;100.00
18988;BME280;5494;51.796;10.952;2022-12-10T06:41:49;98238.47;;;-1.28;100.00
18988;BME280;5494;51.796;10.952;2022-12-10T06:44:24;98239.41;;;-1.35;100.00
18988;BME280;5494;51.796;10.952;2022-12-10T06:46:52;98238.75;;;-1.48;100.00
18988;BME280;5494;51.796;10.952;2022-12-10T06:49:20;98243.09;;;-1.53;100.00
18988;BME280;5494;51.796;10.952;2022-12-10T06:51:53;98243.13;;;-1.58;100.00
18988;BME280;5494;51.796;10.952;2022-12-10T06:54:21;98240.50;;;-1.51;100.00
18988;BME280;5494;51.796;10.952;2022-12-10T06:56:49;98245.56;;;-1.48;100.00
18988;BME280;5494;51.796;10.952;2022-12-10T06:59:17;98252.19;;;-1.38;100.00
18988;BME280;5494;51.796;10.952;2022-12-10T07:01:47;98245.38;;;-1.38;100.00
18988;BME280;5494;51.796;10.952;2022-12-10T07:04:15;98257.09;;;-1.25;100.00
18988;BME280;5494;51.796;10.952;2022-12-10T07:06:44;98248.00;;;-1.39;100.00
18988;BME280;5494;51.796;10.952;2022-12-10T07:09:14;98258.31;;;-1.48;100.00
18988;BME280;5494;51.796;10.952;2022-12-10T07:11:42;98260.94;;;-1.53;100.00
18988;BME280;5494;51.796;10.952;2022-12-10T07:14:14;98260.09;;;-1.55;100.00
18988;BME280;5494;51.796;10.952;2022-12-10T07:16:43;98265.31;;;-1.64;100.00
18988;BME280;5494;51.796;10.952;2022-12-10T07:19:12;98273.78;;;-1.62;100.00
18988;BME280;5494;51.796;10.952;2022-12-10T07:21:42;98269.63;;;-1.69;100.00
18988;BME280;5494;51.796;10.952;2022-12-10T07:24:16;98261.88;;;-1.60;100.00
18988;BME280;5494;51.796;10.952;2022-12-10T07:26:46;98263.28;;;-1.39;100.00
18988;BME280;5494;51.796;10.952;2022-12-10T07:29:18;98262.31;;;-1.32;100.00
18988;BME280;5494;51.796;10.952;2022-12-10T07:31:48;98270.03;;;-1.38;100.00
18988;BME280;5494;51.796;10.952;2022-12-10T07:34:17;98264.88;;;-1.32;100.00
18988;BME280;5494;51.796;10.952;2022-12-10T07:36:45;98272.53;;;-1.34;100.00
18988;BME280;5494;51.796;10.952;2022-12-10T07:39:15;98274.31;;;-1.39;100.00
18988;BME280;5494;51.796;10.952;2022-12-10T07:41:46;98271.81;;;-1.45;100.00
18988;BME280;5494;51.796;10.952;2022-12-10T07:44:17;98275.19;;;-1.41;100.00
18988;BME280;5494;51.796;10.952;2022-12-10T07:46:49;98273.38;;;-1.32;100.00
18988;BME280;5494;51.796;10.952;2022-12-10T07:49:18;98269.78;;;-1.20;100.00
18988;BME280;5494;51.796;10.952;2022-12-10T07:51:50;98275.66;;;-1.16;100.00
18988;BME280;5494;51.796;10.952;2022-12-10T07:54:20;98279.97;;;-1.20;100.00
18988;BME280;5494;51.796;10.952;2022-12-10T07:56:48;98276.47;;;-1.13;100.00
18988;BME280;5494;51.796;10.952;2022-12-10T07:59:17;98282.19;;;-0.99;100.00
18988;BME280;5494;51.796;10.952;2022-12-10T08:01:45;98280.41;;;-0.95;100.00
18988;BME280;5494;51.796;10.952;2022-12-10T08:04:13;98278.91;;;-1.07;100.00
18988;BME280;5494;51.796;10.952;2022-12-10T08:06:41;98279.56;;;-0.94;100.00
18988;BME280;5494;51.796;10.952;2022-12-10T08:09:10;98274.28;;;-0.84;100.00
18988;BME280;5494;51.796;10.952;2022-12-10T08:11:40;98283.75;;;-0.90;100.00
18988;BME280;5494;51.796;10.952;2022-12-10T08:14:08;98284.41;;;-0.77;100.00
18988;BME280;5494;51.796;10.952;2022-12-10T08:16:36;98287.06;;;-0.84;100.00
18988;BME280;5494;51.796;10.952;2022-12-10T08:19:04;98297.31;;;-0.88;100.00
18988;BME280;5494;51.796;10.952;2022-12-10T08:21:33;98292.31;;;-0.96;100.00
18988;BME280;5494;51.796;10.952;2022-12-10T08:24:01;98293.00;;;-0.85;100.00
18988;BME280;5494;51.796;10.952;2022-12-10T08:26:32;98292.91;;;-0.78;100.00
18988;BME280;5494;51.796;10.952;2022-12-10T08:29:02;98291.06;;;-0.70;100.00
18988;BME280;5494;51.796;10.952;2022-12-10T08:31:30;98285.03;;;-0.65;100.00
18988;BME280;5494;51.796;10.952;2022-12-10T08:34:04;98288.19;;;-0.52;100.00
18988;BME280;5494;51.796;10.952;2022-12-10T08:36:33;98294.91;;;-0.48;100.00
18988;BME280;5494;51.796;10.952;2022-12-10T08:39:01;98294.00;;;-0.44;100.00
18988;BME280;5494;51.796;10.952;2022-12-10T08:41:29;98291.38;;;-0.41;100.00
18988;BME280;5494;51.796;10.952;2022-12-10T08:43:57;98304.22;;;-0.44;100.00
18988;BME280;5494;51.796;10.952;2022-12-10T08:46:26;98306.03;;;-0.51;100.00
18988;BME280;5494;51.796;10.952;2022-12-10T08:48:57;98302.78;;;-0.60;100.00
18988;BME280;5494;51.796;10.952;2022-12-10T08:51:26;98303.84;;;-0.70;100.00
18988;BME280;5494;51.796;10.952;2022-12-10T08:53:55;98308.97;;;-0.73;100.00
18988;BME280;5494;51.796;10.952;2022-12-10T08:56:23;98306.28;;;-0.64;100.00
18988;BME280;5494;51.796;10.952;2022-12-10T08:58:51;98311.84;;;-0.43;100.00
18988;BME280;5494;51.796;10.952;2022-12-10T09:01:20;98311.59;;;-0.29;100.00
18988;BME280;5494;51.796;10.952;2022-12-10T09:03:50;98315.66;;;-0.19;100.00
18988;BME280;5494;51.796;10.952;2022-12-10T09:06:22;98319.66;;;-0.06;100.00
18988;BME280;5494;51.796;10.952;2022-12-10T09:08:52;98321.31;;;-0.03;100.00
18988;BME280;5494;51.796;10.952;2022-12-10T09:11:24;98307.50;;;0.07;100.00
18988;BME280;5494;51.796;10.952;2022-12-10T09:13:53;98315.78;;;0.20;100.00
18988;BME280;5494;51.796;10.952;2022-12-10T09:16:23;98317.41;;;0.22;100.00
18988;BME280;5494;51.796;10.952;2022-12-10T09:18:56;98318.41;;;0.15;100.00
18988;BME280;5494;51.796;10.952;2022-12-10T09:21:25;98324.50;;;0.08;100.00
18988;BME280;5494;51.796;10.952;2022-12-10T09:23:53;98322.78;;;0.09;100.00
18988;BME280;5494;51.796;10.952;2022-12-10T09:26:25;98326.28;;;0.05;100.00
18988;BME280;5494;51.796;10.952;2022-12-10T09:28:53;98329.56;;;0.11;100.00
18988;BME280;5494;51.796;10.952;2022-12-10T09:31:24;98336.41;;;0.09;100.00
18988;BME280;5494;51.796;10.952;2022-12-10T09:33:53;98335.31;;;-0.22;100.00
18988;BME280;5494;51.796;10.952;2022-12-10T09:36:23;98342.59;;;-0.49;100.00
18988;BME280;5494;51.796;10.952;2022-12-10T09:38:59;98341.19;;;-0.66;100.00
18988;BME280;5494;51.796;10.952;2022-12-10T09:41:50;98344.81;;;-0.83;100.00
18988;BME280;5494;51.796;10.952;2022-12-10T09:44:38;98335.75;;;-0.99;100.00
18988;BME280;5494;51.796;10.952;2022-12-10T09:47:11;98333.09;;;-0.91;100.00
18988;BME280;5494;51.796;10.952;2022-12-10T09:49:54;98333.00;;;-0.87;100.00
18988;BME280;5494;51.796;10.952;2022-12-10T09:52:34;98327.81;;;-0.82;100.00
18988;BME280;5494;51.796;10.952;2022-12-10T09:55:10;98326.00;;;-0.74;100.00
18988;BME280;5494;51.796;10.952;2022-12-10T09:57:46;98329.16;;;-0.61;100.00
18988;BME280;5494;51.796;10.952;2022-12-10T10:00:22;98330.97;;;-0.66;100.00
18988;BME280;5494;51.796;10.952;2022-12-10T10:02:51;98331.91;;;-0.70;100.00
18988;BME280;5494;51.796;10.952;2022-12-10T10:05:22;98319.03;;;-0.64;100.00
18988;BME280;5494;51.796;10.952;2022-12-10T10:07:56;98320.66;;;-0.62;100.00
18988;BME280;5494;51.796;10.952;2022-12-10T10:10:30;98318.84;;;-0.55;100.00
18988;BME280;5494;51.796;10.952;2022-12-10T10:13:12;98318.97;;;-0.61;100.00
18988;BME280;5494;51.796;10.952;2022-12-10T10:15:43;98315.50;;;-0.57;100.00
18988;BME280;5494;51.796;10.952;2022-12-10T10:18:20;98319.03;;;-0.64;100.00
18988;BME280;5494;51.796;10.952;2022-12-10T10:20:51;98314.78;;;-0.65;100.00
18988;BME280;5494;51.796;10.952;2022-12-10T10:23:21;98303.63;;;-0.58;100.00
18988;BME280;5494;51.796;10.952;2022-12-10T10:25:49;98306.16;;;-0.57;100.00
18988;BME280;5494;51.796;10.952;2022-12-10T10:28:21;98307.03;;;-0.59;100.00
18988;BME280;5494;51.796;10.952;2022-12-10T10:30:52;98314.75;;;-0.62;100.00
18988;BME280;5494;51.796;10.952;2022-12-10T10:33:21;98311.28;;;-0.58;100.00
18988;BME280;5494;51.796;10.952;2022-12-10T10:35:54;98321.09;;;-0.35;100.00
18988;BME280;5494;51.796;10.952;2022-12-10T10:38:28;98317.06;;;-0.49;100.00
18988;BME280;5494;51.796;10.952;2022-12-10T10:41:00;98320.19;;;-0.34;100.00
18988;BME280;5494;51.796;10.952;2022-12-10T10:43:34;98314.69;;;-0.12;100.00
18988;BME280;5494;51.796;10.952;2022-12-10T10:46:13;98313.81;;;-0.12;100.00
18988;BME280;5494;51.796;10.952;2022-12-10T10:48:42;98313.91;;;-0.15;100.00
18988;BME280;5494;51.796;10.952;2022-12-10T10:51:18;98315.34;;;-0.01;100.00
18988;BME280;5494;51.796;10.952;2022-12-10T10:53:52;98322.44;;;-0.18;100.00
18988;BME280;5494;51.796;10.952;2022-12-10T10:56:24;98319.28;;;-0.30;100.00
18988;BME280;5494;51.796;10.952;2022-12-10T10:58:57;98323.84;;;-0.48;100.00
18988;BME280;5494;51.796;10.952;2022-12-10T11:01:45;98312.16;;;-0.61;100.00
18988;BME280;5494;51.796;10.952;2022-12-10T11:04:17;98324.78;;;-0.53;100.00
18988;BME280;5494;51.796;10.952;2022-12-10T11:06:46;98326.16;;;-0.34;100.00
18988;BME280;5494;51.796;10.952;2022-12-10T11:09:21;98325.16;;;-0.27;100.00
18988;BME280;5494;51.796;10.952;2022-12-10T11:12:00;98322.72;;;-0.33;100.00
18988;BME280;5494;51.796;10.952;2022-12-10T11:14:32;98325.13;;;-0.24;100.00
18988;BME280;5494;51.796;10.952;2022-12-10T11:17:19;98323.53;;;-0.31;100.00
18988;BME280;5494;51.796;10.952;2022-12-10T11:19:58;98323.53;;;-0.31;100.00
18988;BME280;5494;51.796;10.952;2022-12-10T11:22:29;98316.00;;;-0.37;100.00
18988;BME280;5494;51.796;10.952;2022-12-10T11:25:00;98317.63;;;-0.33;100.00
18988;BME280;5494;51.796;10.952;2022-12-10T11:27:42;98317.84;;;-0.45;100.00
18988;BME280;5494;51.796;10.952;2022-12-10T11:30:17;98321.22;;;-0.43;100.00
18988;BME280;5494;51.796;10.952;2022-12-10T11:33:07;98326.59;;;-0.58;100.00
18988;BME280;5494;51.796;10.952;2022-12-10T11:35:50;98317.84;;;-0.45;100.00
18988;BME280;5494;51.796;10.952;2022-12-10T11:38:28;98321.94;;;-0.35;100.00
18988;BME280;5494;51.796;10.952;2022-12-10T11:41:09;98317.34;;;-0.18;100.00
18988;BME280;5494;51.796;10.952;2022-12-10T11:44:11;98317.81;;;0.03;100.00
18988;BME280;5494;51.796;10.952;2022-12-10T11:47:22;98314.25;;;0.10;100.00
18988;BME280;5494;51.796;10.952;2022-12-10T11:50:10;98328.97;;;-0.02;100.00
18988;BME280;5494;51.796;10.952;2022-12-10T11:52:55;98324.00;;;-0.09;100.00
18988;BME280;5494;51.796;10.952;2022-12-10T11:55:36;98329.75;;;0.00;100.00
18988;BME280;5494;51.796;10.952;2022-12-10T11:58:31;98321.88;;;0.13;100.00
18988;BME280;5494;51.796;10.952;2022-12-10T12:01:13;98323.44;;;0.20;100.00
18988;BME280;5494;51.796;10.952;2022-12-10T12:04:19;98328.56;;;0.20;100.00
18988;BME280;5494;51.796;10.952;2022-12-10T12:07:09;98335.84;;;-0.07;100.00
18988;BME280;5494;51.796;10.952;2022-12-10T12:09:58;98332.28;;;0.04;100.00
18988;BME280;5494;51.796;10.952;2022-12-10T12:12:40;98327.06;;;0.08;100.00
18988;BME280;5494;51.796;10.952;2022-12-10T12:15:19;98332.63;;;-0.15;100.00
18988;BME280;5494;51.796;10.952;2022-12-10T12:17:56;98332.66;;;-0.18;100.00
18988;BME280;5494;51.796;10.952;2022-12-10T12:20:31;98333.75;;;-0.31;100.00
18988;BME280;5494;51.796;10.952;2022-12-10T12:23:12;98336.44;;;-0.37;100.00
18988;BME280;5494;51.796;10.952;2022-12-10T12:25:48;98337.28;;;-0.38;100.00
18988;BME280;5494;51.796;10.952;2022-12-10T12:28:24;98337.13;;;-0.29;100.00
18988;BME280;5494;51.796;10.952;2022-12-10T12:31:09;98332.53;;;-0.10;100.00
18988;BME280;5494;51.796;10.952;2022-12-10T12:33:45;98332.63;;;-0.15;100.00
18988;BME280;5494;51.796;10.952;2022-12-10T12:36:19;98332.22;;;0.07;100.00
18988;BME280;5494;51.796;10.952;2022-12-10T12:38:58;98334.88;;;0.00;100.00
18988;BME280;5494;51.796;10.952;2022-12-10T12:41:34;98328.25;;;-0.08;100.00
18988;BME280;5494;51.796;10.952;2022-12-10T12:44:15;98331.50;;;0.00;100.00
18988;BME280;5494;51.796;10.952;2022-12-10T12:46:49;98328.13;;;-0.02;100.00
18988;BME280;5494;51.796;10.952;2022-12-10T12:49:24;98330.69;;;-0.04;100.00
18988;BME280;5494;51.796;10.952;2022-12-10T12:52:02;98332.38;;;-0.01;100.00
18988;BME280;5494;51.796;10.952;2022-12-10T12:54:33;98327.00;;;0.11;100.00
18988;BME280;5494;51.796;10.952;2022-12-10T12:57:07;98326.41;;;-0.02;100.00
18988;BME280;5494;51.796;10.952;2022-12-10T12:59:54;98330.94;;;-0.16;100.00
18988;BME280;5494;51.796;10.952;2022-12-10T13:02:48;98334.34;;;-0.17;100.00
18988;BME280;5494;51.796;10.952;2022-12-10T13:05:27;98338.78;;;-0.26;100.00
18988;BME280;5494;51.796;10.952;2022-12-10T13:08:41;98333.63;;;-0.23;100.00
18988;BME280;5494;51.796;10.952;2022-12-10T13:14:14;98334.75;;;-0.38;100.00
18988;BME280;5494;51.796;10.952;2022-12-10T13:17:01;98341.38;;;-0.28;100.00
18988;BME280;5494;51.796;10.952;2022-12-10T13:19:31;98343.88;;;-0.26;100.00
18988;BME280;5494;51.796;10.952;2022-12-10T13:22:06;98352.66;;;-0.41;100.00
18988;BME280;5494;51.796;10.952;2022-12-10T13:24:47;98345.53;;;-0.22;100.00